Time;durP1;ratioP1;P1;durP2;ratioP2;P2;SDS_P1;SDS_P2;PMS_P1;PMS_P2;Temp;Humidity;BMP_temperature;BMP_pressure;BME280_temperature;BME280_humidity;BME280_pressure;Samples;Min_cycle;Max_cycle;Signal;HPM_P1;HPM_P2
2021/08/27 00:00:25;;;;;;;14.15;5.25;;;;;;;14.23;88.16;95999.88;4977098;28;20238;-69
2021/08/27 00:02:51;;;;;;;10.48;5.82;;;;;;;14.59;87.04;95989.63;4977203;28;21153;-71
2021/08/27 00:05:18;;;;;;;12.32;6.03;;;;;;;14.58;87.10;95993.31;4976034;28;20699;-70
2021/08/27 00:07:45;;;;;;;11.50;5.93;;;;;;;14.70;87.11;95997.75;4977686;28;20738;-70
2021/08/27 00:10:13;;;;;;;11.00;5.72;;;;;;;14.72;86.78;95999.19;4976816;28;20210;-70
2021/08/27 00:12:39;;;;;;;11.10;6.20;;;;;;;14.47;87.88;95997.41;4977414;28;20216;-70
2021/08/27 00:15:08;;;;;;;11.15;5.18;;;;;;;14.81;86.98;96005.09;4977009;28;21087;-70
2021/08/27 00:17:35;;;;;;;10.10;6.40;;;;;;;14.55;87.09;95999.03;4976580;28;20214;-70
2021/08/27 00:20:01;;;;;;;12.50;5.90;;;;;;;14.77;86.06;95993.28;4977061;28;20214;-70
2021/08/27 00:22:28;;;;;;;14.05;5.45;;;;;;;14.67;86.69;95999.00;4977090;28;20214;-70
2021/08/27 00:24:56;;;;;;;13.27;5.90;;;;;;;14.87;86.60;95994.47;4977403;28;20234;-70
2021/08/27 00:27:22;;;;;;;12.40;5.97;;;;;;;14.80;85.52;95996.31;4976410;28;20214;-70
2021/08/27 00:29:49;;;;;;;15.25;6.93;;;;;;;14.72;86.84;95995.72;4977434;28;20223;-70
2021/08/27 00:32:16;;;;;;;10.63;5.43;;;;;;;14.74;85.89;95997.16;4976602;28;20213;-71
2021/08/27 00:34:42;;;;;;;10.52;5.75;;;;;;;14.82;86.43;96001.41;4975907;28;20250;-70
2021/08/27 00:37:09;;;;;;;14.32;6.90;;;;;;;14.81;86.13;95999.78;4975891;28;20203;-69
2021/08/27 00:39:36;;;;;;;13.82;7.13;;;;;;;14.59;86.60;96001.06;4975200;28;20210;-70
2021/08/27 00:42:04;;;;;;;13.60;7.77;;;;;;;14.80;86.76;95998.16;4976969;28;20207;-70
2021/08/27 00:44:30;;;;;;;15.32;8.80;;;;;;;14.73;85.95;96000.03;4976860;28;20227;-69
2021/08/27 00:46:57;;;;;;;21.02;10.70;;;;;;;14.41;87.65;96000.88;4975618;28;20203;-70
2021/08/27 00:49:23;;;;;;;22.17;11.48;;;;;;;14.43;87.91;96001.47;4977668;28;20199;-70
2021/08/27 00:51:51;;;;;;;24.25;12.05;;;;;;;14.61;88.15;96003.50;4976062;28;20215;-70
2021/08/27 00:54:18;;;;;;;23.00;12.82;;;;;;;14.68;87.18;96000.63;4976868;28;20215;-70
2021/08/27 00:56:44;;;;;;;23.60;12.45;;;;;;;14.70;87.05;95998.59;4975694;28;20231;-70
2021/08/27 00:59:12;;;;;;;37.78;13.00;;;;;;;15.00;86.31;95994.41;4976576;28;20203;-70
2021/08/27 01:01:39;;;;;;;26.15;12.52;;;;;;;14.91;87.02;96000.97;4976387;28;20211;-69
2021/08/27 01:04:06;;;;;;;25.50;14.63;;;;;;;15.03;86.40;95994.00;4976482;28;20235;-70
2021/08/27 01:06:38;;;;;;;28.88;16.05;;;;;;;15.10;86.52;95997.44;4975945;28;20238;-69
2021/08/27 01:09:07;;;;;;;32.05;15.10;;;;;;;15.10;86.73;95992.13;4976468;28;20206;-69
2021/08/27 01:11:41;;;;;;;36.67;14.25;;;;;;;15.21;86.94;95998.66;4976319;28;20210;-70
2021/08/27 01:14:16;;;;;;;23.38;13.80;;;;;;;15.25;85.75;95993.53;4975802;28;20279;-69
2021/08/27 01:16:53;;;;;;;26.00;14.38;;;;;;;15.19;86.06;96000.69;4975584;28;20226;-70
2021/08/27 01:19:38;;;;;;;25.92;13.98;;;;;;;15.32;85.94;95999.63;4976169;28;20211;-70
2021/08/27 01:22:19;;;;;;;24.85;14.75;;;;;;;15.28;86.41;96003.72;4976384;28;20203;-70
2021/08/27 01:24:49;;;;;;;25.38;14.13;;;;;;;15.27;87.23;95995.97;4975823;28;20227;-70
2021/08/27 01:27:18;;;;;;;28.27;15.18;;;;;;;15.21;88.39;95999.47;4975813;28;20963;-70
2021/08/27 01:30:04;;;;;;;25.08;14.63;;;;;;;15.47;87.32;96002.00;4975769;28;20295;-70
2021/08/27 01:32:35;;;;;;;25.35;14.63;;;;;;;15.34;87.83;95997.56;4976322;28;20211;-70
2021/08/27 01:35:04;;;;;;;25.55;14.10;;;;;;;15.33;87.37;95992.47;4976389;28;20250;-70
2021/08/27 01:37:32;;;;;;;24.17;14.43;;;;;;;15.44;86.37;96002.41;4975550;28;20218;-71
2021/08/27 01:39:59;;;;;;;27.88;14.55;;;;;;;15.40;86.80;96001.22;4972405;28;20207;-70
2021/08/27 01:42:28;;;;;;;25.38;13.82;;;;;;;15.45;86.72;96001.38;4975922;28;20215;-70
2021/08/27 01:44:57;;;;;;;22.25;13.18;;;;;;;15.51;86.59;96004.00;4974998;28;20231;-70
2021/08/27 01:47:27;;;;;;;20.98;11.45;;;;;;;15.51;85.95;96004.00;4974197;28;20203;-70
2021/08/27 01:49:54;;;;;;;19.88;11.63;;;;;;;15.45;85.89;96009.34;4975936;28;20199;-70
2021/08/27 01:52:22;;;;;;;20.77;11.52;;;;;;;15.42;85.92;96009.78;4976275;28;20575;-70
2021/08/27 01:54:49;;;;;;;22.23;11.68;;;;;;;15.35;85.84;96011.63;4975540;28;20278;-70
2021/08/27 01:57:16;;;;;;;22.55;10.82;;;;;;;15.39;85.80;96005.72;4974631;28;20210;-70
2021/08/27 01:59:45;;;;;;;20.77;11.07;;;;;;;15.63;85.74;95998.84;4975552;28;20679;-70
2021/08/27 02:02:14;;;;;;;22.40;11.48;;;;;;;15.63;87.10;96006.81;4975535;28;20207;-70
2021/08/27 02:04:43;;;;;;;23.80;11.57;;;;;;;15.53;87.45;96011.75;4975649;28;20231;-70
2021/08/27 02:07:10;;;;;;;25.85;11.07;;;;;;;15.46;87.33;96008.34;4974842;28;20203;-71
2021/08/27 02:09:39;;;;;;;22.33;10.93;;;;;;;15.54;86.94;96008.91;4975508;28;20212;-70
2021/08/27 02:12:07;;;;;;;20.48;11.18;;;;;;;15.58;87.27;96015.44;4975855;28;20214;-70
2021/08/27 02:14:35;;;;;;;22.45;11.35;;;;;;;15.63;86.81;96015.59;4974525;28;20207;-71
2021/08/27 02:17:05;;;;;;;20.80;10.77;;;;;;;15.65;87.83;96020.69;4975225;28;20203;-70
2021/08/27 02:19:32;;;;;;;17.35;9.10;;;;;;;15.47;86.98;96017.94;4975136;28;20207;-70
2021/08/27 02:22:00;;;;;;;15.20;8.40;;;;;;;15.64;87.40;96008.44;4974979;28;20211;-70
2021/08/27 02:24:44;;;;;;;17.20;7.85;;;;;;;15.73;86.04;96015.13;4974029;28;20216;-71
2021/08/27 02:27:11;;;;;;;17.67;7.00;;;;;;;15.50;86.32;96012.19;4974941;28;20199;-70
2021/08/27 02:29:39;;;;;;;14.70;7.80;;;;;;;15.81;86.97;96009.56;4974941;28;20689;-70
2021/08/27 02:32:10;;;;;;;11.85;7.05;;;;;;;15.79;87.01;96015.09;4975350;28;20225;-70
2021/08/27 02:34:41;;;;;;;14.90;8.02;;;;;;;15.84;86.59;96010.75;4975333;28;20199;-70
2021/08/27 02:37:09;;;;;;;13.70;7.03;;;;;;;15.58;87.49;96014.59;4974101;28;20214;-70
2021/08/27 02:39:35;;;;;;;13.82;6.82;;;;;;;15.45;87.91;96012.00;4972404;28;20579;-70
2021/08/27 02:42:04;;;;;;;14.02;7.10;;;;;;;15.77;87.54;96016.31;4975339;28;20208;-71
2021/08/27 02:44:31;;;;;;;14.35;6.85;;;;;;;15.61;87.71;96015.00;4975021;28;20238;-70
2021/08/27 02:46:57;;;;;;;12.60;6.50;;;;;;;15.54;87.74;96019.53;4974119;28;20203;-70
2021/08/27 02:49:24;;;;;;;15.98;7.13;;;;;;;15.52;88.32;96012.81;4975092;28;20691;-70
2021/08/27 02:52:04;;;;;;;13.52;6.90;;;;;;;15.81;87.51;96014.88;4975357;28;20207;-70
2021/08/27 02:54:35;;;;;;;12.68;7.07;;;;;;;15.57;88.67;96018.31;4975135;28;20226;-70
2021/08/27 02:57:04;;;;;;;12.93;7.28;;;;;;;15.56;88.45;96021.97;4975756;28;20211;-69
2021/08/27 02:59:32;;;;;;;13.93;7.18;;;;;;;15.52;88.66;96020.78;4977972;28;20598;-70
2021/08/27 03:02:02;;;;;;;18.90;7.85;;;;;;;15.55;88.35;96025.66;4978404;28;20207;-70
2021/08/27 03:04:40;;;;;;;15.15;6.68;;;;;;;15.88;86.82;96017.28;4979191;28;20241;-70
2021/08/27 03:07:12;;;;;;;13.25;6.95;;;;;;;15.85;87.01;96017.69;4977845;28;20210;-70
2021/08/27 03:09:48;;;;;;;13.32;7.05;;;;;;;15.80;88.42;96015.91;4978039;28;20671;-70
2021/08/27 03:12:19;;;;;;;13.18;6.70;;;;;;;15.79;88.50;96011.63;4977761;28;20694;-71
2021/08/27 03:14:51;;;;;;;15.57;7.00;;;;;;;15.73;89.01;96015.13;4978618;28;20227;-70
2021/08/27 03:17:20;;;;;;;13.55;6.90;;;;;;;15.72;89.47;96005.53;4977514;28;20196;-70
2021/08/27 03:19:54;;;;;;;13.85;6.60;;;;;;;15.91;87.96;95994.75;4978532;28;20235;-70
2021/08/27 03:22:24;;;;;;;16.48;7.38;;;;;;;15.72;88.07;96002.88;4978047;28;20230;-71
2021/08/27 03:24:56;;;;;;;16.60;7.20;;;;;;;15.81;87.76;96002.41;4977889;28;20539;-70
2021/08/27 03:27:27;;;;;;;12.48;6.82;;;;;;;15.94;88.10;95999.66;4977048;28;20207;-70
2021/08/27 03:29:57;;;;;;;13.90;6.55;;;;;;;15.92;89.39;95999.06;4978394;28;20222;-71
2021/08/27 03:32:25;;;;;;;13.77;7.03;;;;;;;15.83;88.97;96000.34;4977739;28;20304;-71
2021/08/27 03:34:52;;;;;;;16.20;7.00;;;;;;;15.76;89.27;95998.75;4978167;28;20991;-69
2021/08/27 03:37:20;;;;;;;14.32;6.97;;;;;;;15.81;89.40;96001.56;4977166;28;20206;-71
2021/08/27 03:39:48;;;;;;;12.02;6.57;;;;;;;15.71;89.75;95996.75;4975245;28;20208;-71
2021/08/27 03:42:17;;;;;;;16.15;7.10;;;;;;;15.81;89.51;96004.22;4977138;28;20210;-70
2021/08/27 03:44:46;;;;;;;12.02;7.00;;;;;;;15.79;89.51;96003.66;4977713;28;20235;-70
2021/08/27 03:47:15;;;;;;;15.07;6.95;;;;;;;15.50;89.32;96020.16;4976613;28;20204;-70
2021/08/27 03:49:42;;;;;;;14.13;6.85;;;;;;;15.43;89.56;96016.72;4977339;28;20686;-69
2021/08/27 03:52:09;;;;;;;11.35;6.28;;;;;;;15.56;89.80;96017.47;4977882;28;20203;-71
2021/08/27 03:54:35;;;;;;;14.98;6.70;;;;;;;15.48;90.36;96024.88;4977547;28;20212;-70
2021/08/27 03:57:03;;;;;;;12.63;6.55;;;;;;;15.62;90.12;96018.47;4976643;28;20204;-72
2021/08/27 03:59:32;;;;;;;13.63;6.78;;;;;;;15.63;90.10;96015.59;4977729;28;20219;-71
2021/08/27 04:02:03;;;;;;;12.90;6.78;;;;;;;15.68;89.75;96017.59;4977710;28;20226;-70
2021/08/27 04:04:29;;;;;;;17.98;7.05;;;;;;;15.60;89.53;96016.00;4977410;28;20230;-71
2021/08/27 04:06:57;;;;;;;11.27;6.55;;;;;;;15.64;90.32;96013.75;4977022;28;20211;-70
2021/08/27 04:09:24;;;;;;;11.77;6.70;;;;;;;15.56;91.34;96011.34;4976703;28;20588;-70
2021/08/27 04:11:51;;;;;;;13.18;6.70;;;;;;;15.62;90.73;96021.13;4977063;28;20430;-70
2021/08/27 04:14:18;;;;;;;14.90;7.95;;;;;;;15.48;92.16;96015.06;4977329;28;20192;-70
2021/08/27 04:16:45;;;;;;;14.23;7.90;;;;;;;15.29;92.23;96015.16;4976685;28;20235;-69
2021/08/27 04:19:13;;;;;;;16.90;7.88;;;;;;;15.41;91.97;96021.44;4976590;28;20207;-72
2021/08/27 04:21:40;;;;;;;17.48;8.20;;;;;;;15.15;92.77;96018.88;4977211;28;20203;-70
2021/08/27 04:24:06;;;;;;;16.67;8.18;;;;;;;15.13;92.93;96023.56;4977579;28;21286;-69
2021/08/27 04:26:33;;;;;;;17.08;8.13;;;;;;;15.41;93.36;96021.44;4975996;28;20250;-69
2021/08/27 04:29:00;;;;;;;17.05;8.35;;;;;;;15.39;93.70;96015.53;4976877;28;20206;-71
2021/08/27 04:31:27;;;;;;;24.77;9.70;;;;;;;15.46;93.45;96011.00;4977039;28;20223;-73
2021/08/27 04:33:53;;;;;;;19.73;9.13;;;;;;;15.49;93.17;96010.56;4976924;28;20583;-73
2021/08/27 04:36:21;;;;;;;17.00;8.68;;;;;;;15.47;93.22;96012.63;4976359;28;20594;-74
2021/08/27 04:38:48;;;;;;;19.17;9.23;;;;;;;15.26;93.72;96015.56;4974727;28;20208;-71
2021/08/27 04:41:15;;;;;;;14.98;8.90;;;;;;;15.27;94.72;96017.19;4976961;28;20207;-70
2021/08/27 04:43:41;;;;;;;18.63;8.48;;;;;;;15.39;94.02;96019.00;4976295;28;20211;-71
2021/08/27 04:46:10;;;;;;;18.95;8.85;;;;;;;15.26;94.24;96019.06;4976288;28;20219;-71
2021/08/27 04:48:37;;;;;;;20.98;10.88;;;;;;;15.27;94.05;96028.66;4976661;28;20207;-69
2021/08/27 04:51:03;;;;;;;25.23;9.63;;;;;;;15.43;94.11;96020.19;4976879;28;20211;-71
2021/08/27 04:53:31;;;;;;;15.93;9.60;;;;;;;15.58;93.91;96034.00;4976053;28;20222;-71
2021/08/27 04:55:58;;;;;;;21.48;10.10;;;;;;;15.37;92.70;96031.66;4976421;28;20246;-71
2021/08/27 04:58:25;;;;;;;19.35;9.57;;;;;;;15.45;92.31;96036.75;4976024;28;20203;-70
2021/08/27 05:00:52;;;;;;;23.00;10.07;;;;;;;15.36;93.36;96039.81;4976493;28;20215;-69
2021/08/27 05:03:18;;;;;;;23.42;9.85;;;;;;;15.24;93.80;96043.38;4976583;28;21086;-71
2021/08/27 05:05:45;;;;;;;20.15;9.95;;;;;;;15.24;93.72;96041.53;4975704;28;20231;-69
2021/08/27 05:08:12;;;;;;;19.52;10.02;;;;;;;15.31;94.06;96039.66;4976591;28;20778;-70
2021/08/27 05:10:40;;;;;;;21.40;10.25;;;;;;;15.58;93.57;96042.00;4976110;28;20211;-71
2021/08/27 05:13:06;;;;;;;17.45;9.93;;;;;;;15.26;93.91;96039.44;4976758;28;20210;-71
2021/08/27 05:15:33;;;;;;;24.25;10.38;;;;;;;15.44;92.89;96040.41;4975662;28;20223;-70
2021/08/27 05:17:59;;;;;;;22.75;10.77;;;;;;;15.34;93.18;96047.22;4975269;28;20254;-69
2021/08/27 05:20:26;;;;;;;20.30;10.27;;;;;;;15.35;92.96;96051.47;4975474;28;20211;-71
2021/08/27 05:22:52;;;;;;;21.38;10.52;;;;;;;15.45;93.06;96057.16;4976492;28;20208;-70
2021/08/27 05:25:19;;;;;;;18.27;10.32;;;;;;;15.56;92.81;96057.31;4975096;28;20234;-71
2021/08/27 05:27:50;;;;;;;20.25;10.32;;;;;;;15.72;92.43;96056.00;4976384;28;20204;-71
2021/08/27 05:30:18;;;;;;;19.10;10.13;;;;;;;15.47;92.62;96060.44;4976649;28;20676;-71
2021/08/27 05:32:44;;;;;;;21.17;10.63;;;;;;;15.58;92.29;96062.41;4976038;28;20249;-71
2021/08/27 05:35:11;;;;;;;19.85;10.57;;;;;;;15.70;92.83;96055.41;4975291;28;20230;-72
2021/08/27 05:37:38;;;;;;;21.02;10.70;;;;;;;15.64;93.28;96061.56;4976080;28;20207;-71
2021/08/27 05:40:06;;;;;;;21.58;10.88;;;;;;;15.84;93.08;96063.88;4972780;28;20203;-70
2021/08/27 05:42:33;;;;;;;19.00;10.88;;;;;;;15.83;92.30;96060.66;4975572;28;20679;-70
2021/08/27 05:45:01;;;;;;;20.88;10.60;;;;;;;15.93;92.61;96056.50;4975805;28;20231;-72
2021/08/27 05:47:30;;;;;;;23.58;10.38;;;;;;;15.74;91.54;96056.63;4975429;28;20207;-70
2021/08/27 05:49:56;;;;;;;24.60;11.27;;;;;;;15.64;91.82;96057.06;4975909;28;20246;-70
2021/08/27 05:52:23;;;;;;;25.08;10.73;;;;;;;15.58;92.40;96052.59;4975286;28;20199;-70
2021/08/27 05:54:49;;;;;;;19.15;10.57;;;;;;;15.74;92.91;96052.09;4975762;28;20242;-72
2021/08/27 05:57:16;;;;;;;21.20;10.77;;;;;;;15.86;93.10;96045.91;4975078;28;20204;-70
2021/08/27 05:59:42;;;;;;;19.55;10.88;;;;;;;15.96;92.92;96051.56;4975582;28;20218;-70
2021/08/27 06:02:10;;;;;;;20.70;11.48;;;;;;;16.12;92.01;96061.66;4975730;28;20209;-70
2021/08/27 06:04:37;;;;;;;24.75;10.80;;;;;;;15.75;92.45;96060.91;4976089;28;20234;-70
2021/08/27 06:07:04;;;;;;;22.35;10.70;;;;;;;15.80;92.59;96061.09;4974270;28;20203;-70
2021/08/27 06:09:30;;;;;;;19.88;10.70;;;;;;;15.74;92.12;96054.75;4975700;28;20214;-70
2021/08/27 06:11:57;;;;;;;22.70;11.48;;;;;;;16.03;91.53;96056.84;4975805;28;20588;-70
2021/08/27 06:14:23;;;;;;;17.02;10.25;;;;;;;15.84;92.03;96067.59;4975517;28;20219;-70
2021/08/27 06:16:50;;;;;;;24.80;11.00;;;;;;;15.90;91.63;96068.38;4974558;28;20215;-70
2021/08/27 06:19:18;;;;;;;22.23;10.98;;;;;;;16.05;91.77;96076.88;4975765;28;20218;-71
2021/08/27 06:21:44;;;;;;;19.95;10.57;;;;;;;15.82;92.68;96077.63;4974846;28;20207;-70
2021/08/27 06:24:10;;;;;;;19.63;10.57;;;;;;;15.87;92.79;96087.41;4974871;28;20204;-71
2021/08/27 06:26:37;;;;;;;20.77;10.80;;;;;;;15.70;93.13;96084.63;4974163;28;20231;-71
2021/08/27 06:29:04;;;;;;;18.63;10.40;;;;;;;15.96;91.69;96085.28;4975156;28;20888;-70
2021/08/27 06:31:31;;;;;;;19.98;10.35;;;;;;;16.10;91.42;96090.34;4975146;28;20211;-71
2021/08/27 06:33:58;;;;;;;19.00;10.82;;;;;;;16.22;92.24;96085.16;4975374;28;20207;-70
2021/08/27 06:36:26;;;;;;;20.85;9.82;;;;;;;16.23;91.53;96086.75;4974915;28;20227;-71
2021/08/27 06:38:52;;;;;;;18.27;10.45;;;;;;;16.04;92.55;96093.84;4972194;28;20294;-70
2021/08/27 06:41:19;;;;;;;22.13;10.02;;;;;;;15.85;92.37;96096.59;4975248;28;20200;-71
2021/08/27 06:43:47;;;;;;;17.85;9.75;;;;;;;15.88;93.84;96090.88;4974962;28;20210;-70
2021/08/27 06:46:17;;;;;;;16.25;9.63;;;;;;;16.18;92.25;96097.25;4973965;28;20227;-70
2021/08/27 06:48:44;;;;;;;20.48;10.52;;;;;;;16.09;92.39;96088.69;4974497;28;20207;-70
2021/08/27 06:51:11;;;;;;;27.35;10.48;;;;;;;15.94;92.80;96093.47;4975017;28;20203;-70
2021/08/27 06:53:39;;;;;;;23.88;10.23;;;;;;;16.21;92.38;96099.47;4974759;28;20206;-71
2021/08/27 06:56:05;;;;;;;20.40;10.65;;;;;;;16.19;91.84;96097.03;4974018;28;20345;-71
2021/08/27 06:58:32;;;;;;;21.92;10.27;;;;;;;16.23;91.38;96094.72;4975134;28;20691;-70
2021/08/27 07:01:01;;;;;;;18.20;9.95;;;;;;;16.31;91.28;96095.31;4974679;28;20211;-69
2021/08/27 07:03:28;;;;;;;18.15;10.13;;;;;;;16.10;92.43;96094.81;4974575;28;20203;-70
2021/08/27 07:05:55;;;;;;;25.02;11.02;;;;;;;16.10;93.03;96100.13;4974287;28;20231;-71
2021/08/27 07:08:22;;;;;;;24.35;11.43;;;;;;;16.09;93.74;96094.00;4975015;28;20249;-71
2021/08/27 07:10:50;;;;;;;20.83;10.57;;;;;;;16.26;92.24;96097.00;4975004;28;20208;-70
2021/08/27 07:13:17;;;;;;;19.00;10.60;;;;;;;16.05;93.69;96102.63;4974455;28;20709;-71
2021/08/27 07:15:43;;;;;;;24.30;11.57;;;;;;;15.84;94.93;96106.41;4974118;28;21020;-74
2021/08/27 07:18:10;;;;;;;18.70;10.38;;;;;;;15.89;94.49;96100.47;4974466;28;20207;-73
2021/08/27 07:20:38;;;;;;;22.23;11.32;;;;;;;16.16;94.46;96094.78;4974375;28;20679;-73
2021/08/27 07:23:04;;;;;;;20.58;11.10;;;;;;;16.20;94.17;96109.25;4974815;28;20239;-74
2021/08/27 07:25:31;;;;;;;20.10;10.00;;;;;;;16.55;92.79;96100.66;4974023;28;20234;-72
2021/08/27 07:27:59;;;;;;;17.17;8.80;;;;;;;16.37;93.14;96101.63;4974653;28;20210;-74
2021/08/27 07:30:26;;;;;;;15.30;8.20;;;;;;;16.22;90.16;96109.88;4974231;28;20214;-73
2021/08/27 07:32:52;;;;;;;19.63;9.63;;;;;;;16.25;92.59;96111.28;4974674;28;20227;-74
2021/08/27 07:35:19;;;;;;;20.00;9.70;;;;;;;16.54;92.89;96114.19;4973902;28;20223;-71
2021/08/27 07:37:45;;;;;;;15.60;9.32;;;;;;;16.35;93.38;96114.34;4974483;28;20203;-71
2021/08/27 07:40:14;;;;;;;15.13;8.48;;;;;;;16.49;92.77;96100.72;4970492;28;20581;-71
2021/08/27 07:42:40;;;;;;;16.83;8.73;;;;;;;16.33;91.49;96114.56;4975103;28;20222;-70
2021/08/27 07:45:10;;;;;;;10.43;6.07;;;;;;;16.28;89.24;96119.69;4977598;28;20231;-73
2021/08/27 07:47:37;;;;;;;9.32;5.40;;;;;;;15.94;91.21;96117.41;4977798;28;20207;-74
2021/08/27 07:50:04;;;;;;;14.02;6.68;;;;;;;16.14;92.07;96125.25;4977373;28;20563;-72
2021/08/27 07:52:31;;;;;;;8.48;4.15;;;;;;;15.97;89.95;96117.00;4976030;28;20218;-72
2021/08/27 07:54:57;;;;;;;10.98;5.00;;;;;;;16.06;90.07;96117.53;4977099;28;20238;-73
2021/08/27 07:57:24;;;;;;;13.05;6.38;;;;;;;16.27;89.86;96122.56;4976800;28;20207;-72
2021/08/27 07:59:51;;;;;;;9.85;6.20;;;;;;;16.46;91.09;96127.75;4977398;28;20213;-73
2021/08/27 08:02:19;;;;;;;9.70;5.20;;;;;;;16.34;91.26;96129.47;4976963;28;20218;-73
2021/08/27 08:04:45;;;;;;;8.35;5.55;;;;;;;16.29;89.62;96131.13;4976434;28;20231;-72
2021/08/27 08:07:12;;;;;;;10.00;5.10;;;;;;;16.38;89.41;96125.38;4976348;28;20208;-73
2021/08/27 08:09:39;;;;;;;11.05;5.65;;;;;;;16.54;86.10;96127.47;4976406;28;20211;-74
2021/08/27 08:12:05;;;;;;;10.90;5.53;;;;;;;16.82;87.63;96119.91;4977069;28;20204;-72
2021/08/27 08:14:32;;;;;;;13.25;6.22;;;;;;;16.97;86.18;96128.34;4976574;28;20203;-72
2021/08/27 08:16:59;;;;;;;13.88;5.57;;;;;;;16.58;86.32;96136.66;4976383;28;20230;-71
2021/08/27 08:19:26;;;;;;;12.30;5.82;;;;;;;16.86;87.25;96126.41;4976337;28;20210;-71
2021/08/27 08:21:53;;;;;;;9.75;5.93;;;;;;;16.77;85.86;96125.06;4976146;28;20219;-71
2021/08/27 08:24:19;;;;;;;12.23;5.78;;;;;;;16.77;86.18;96125.84;4976294;28;20663;-71
2021/08/27 08:26:46;;;;;;;9.85;5.00;;;;;;;16.90;83.19;96130.25;4976506;28;20242;-71
2021/08/27 08:29:12;;;;;;;10.85;5.50;;;;;;;17.15;86.58;96124.69;4977178;28;20208;-71
2021/08/27 08:31:39;;;;;;;10.07;5.78;;;;;;;17.42;83.38;96127.94;4977341;28;20218;-71
2021/08/27 08:34:06;;;;;;;12.65;5.60;;;;;;;17.29;84.61;96128.88;4977451;28;20204;-70
2021/08/27 08:36:33;;;;;;;9.50;5.00;;;;;;;17.68;81.70;96133.78;4976190;28;20266;-72
2021/08/27 08:39:00;;;;;;;10.02;4.60;;;;;;;17.52;80.26;96134.38;4974224;28;20211;-71
2021/08/27 08:41:26;;;;;;;8.02;4.10;;;;;;;17.36;79.39;96126.97;4976490;28;20719;-71
2021/08/27 08:43:53;;;;;;;8.75;4.50;;;;;;;17.38;81.38;96132.88;4976379;28;20212;-72
2021/08/27 08:46:22;;;;;;;16.70;6.45;;;;;;;18.14;79.77;96126.00;4975534;28;20227;-72
2021/08/27 08:48:52;;;;;;;6.78;4.70;;;;;;;18.06;79.34;96129.81;4976693;28;20663;-71
2021/08/27 08:51:19;;;;;;;8.00;4.60;;;;;;;17.85;79.46;96137.47;4976290;28;20206;-72
2021/08/27 08:53:49;;;;;;;8.25;4.18;;;;;;;17.49;77.83;96137.50;4975817;28;20215;-71
2021/08/27 08:56:16;;;;;;;9.50;3.97;;;;;;;17.85;76.86;96137.47;4974950;28;20478;-72
2021/08/27 08:58:43;;;;;;;12.18;4.13;;;;;;;18.38;76.24;96139.25;4976530;28;20207;-72
2021/08/27 09:01:13;;;;;;;8.45;3.70;;;;;;;18.16;76.06;96142.59;4975933;28;20203;-70
2021/08/27 09:03:39;;;;;;;8.70;4.63;;;;;;;18.16;77.63;96143.41;4976429;28;20515;-71
2021/08/27 09:06:07;;;;;;;9.45;4.20;;;;;;;17.89;75.69;96143.97;4974871;28;20714;-71
2021/08/27 09:08:36;;;;;;;6.53;3.70;;;;;;;17.96;76.22;96139.38;4975399;28;20207;-70
2021/08/27 09:11:14;;;;;;;5.45;3.38;;;;;;;18.48;73.52;96140.31;4976389;28;20207;-72
2021/08/27 09:13:42;;;;;;;4.43;2.90;;;;;;;18.00;71.84;96140.56;4976077;28;20540;-71
2021/08/27 09:16:10;;;;;;;6.07;2.35;;;;;;;17.77;72.13;96148.44;4974590;28;20778;-71
2021/08/27 09:18:38;;;;;;;4.57;3.28;;;;;;;18.23;71.50;96143.34;4976219;28;20586;-72
2021/08/27 09:21:27;;;;;;;7.72;3.03;;;;;;;18.23;71.03;96140.69;4976738;28;20203;-72
2021/08/27 09:24:16;;;;;;;7.43;3.40;;;;;;;17.98;71.93;96145.31;4976132;28;20211;-72
2021/08/27 09:26:46;;;;;;;6.38;3.17;;;;;;;18.12;72.88;96147.56;4976751;28;20258;-71
2021/08/27 09:29:30;;;;;;;7.82;3.00;;;;;;;17.87;69.90;96154.88;4975878;28;20671;-71
2021/08/27 09:31:57;;;;;;;5.18;2.60;;;;;;;17.83;71.84;96153.69;4976181;28;20222;-72
2021/08/27 09:34:26;;;;;;;4.13;2.63;;;;;;;17.81;72.56;96153.09;4976581;28;20699;-72
2021/08/27 09:36:57;;;;;;;9.02;2.60;;;;;;;17.71;71.01;96152.00;4975695;28;20625;-71
2021/08/27 09:39:31;;;;;;;7.30;2.63;;;;;;;18.12;71.96;96150.22;4972685;28;20931;-71
2021/08/27 09:42:00;;;;;;;5.65;2.70;;;;;;;18.39;67.33;96143.53;4976300;28;20211;-72
2021/08/27 09:44:26;;;;;;;7.05;2.45;;;;;;;18.78;69.06;96145.63;4975637;28;20652;-71
2021/08/27 09:46:53;;;;;;;4.32;2.15;;;;;;;18.80;67.60;96155.03;4975395;28;20707;-71
2021/08/27 09:49:28;;;;;;;3.20;2.28;;;;;;;18.71;65.58;96151.06;4975731;28;20222;-72
2021/08/27 09:51:56;;;;;;;3.80;2.28;;;;;;;18.35;66.91;96153.03;4976173;28;20682;-72
2021/08/27 09:54:25;;;;;;;4.55;2.20;;;;;;;18.48;66.85;96148.34;4976056;28;20482;-72
2021/08/27 09:56:54;;;;;;;3.47;2.60;;;;;;;18.70;67.43;96149.44;4975493;28;20203;-72
2021/08/27 09:59:36;;;;;;;4.60;2.67;;;;;;;19.09;66.53;96140.81;4975550;28;20231;-70
2021/08/27 10:02:03;;;;;;;6.75;2.58;;;;;;;18.99;66.55;96144.03;4976039;28;20213;-72
2021/08/27 10:04:30;;;;;;;3.15;2.00;;;;;;;18.80;63.44;96149.69;4974956;28;20215;-71
2021/08/27 10:06:57;;;;;;;3.60;1.80;;;;;;;18.64;65.41;96149.53;4974763;28;20343;-72
2021/08/27 10:09:23;;;;;;;2.78;1.63;;;;;;;18.61;62.10;96134.78;4975888;28;20222;-71
2021/08/27 10:11:56;;;;;;;3.65;1.50;;;;;;;19.00;62.17;96142.16;4975590;28;20207;-71
2021/08/27 10:14:23;;;;;;;4.13;1.73;;;;;;;18.52;62.21;96136.16;4975520;28;20203;-72
2021/08/27 10:16:51;;;;;;;3.33;1.60;;;;;;;18.72;62.73;96135.84;4974501;28;20668;-71
2021/08/27 10:19:18;;;;;;;3.50;1.60;;;;;;;18.46;62.36;96136.25;4975094;28;20210;-72
2021/08/27 10:21:50;;;;;;;5.88;1.60;;;;;;;18.85;62.10;96139.13;4975854;28;20203;-72
2021/08/27 10:24:16;;;;;;;6.00;1.50;;;;;;;19.44;60.57;96129.06;4975071;28;20720;-72
2021/08/27 10:26:43;;;;;;;2.28;1.30;;;;;;;20.02;59.67;96133.31;4972295;28;20257;-72
2021/08/27 10:29:11;;;;;;;3.33;1.77;;;;;;;19.62;58.83;96135.09;4974615;28;20203;-71
2021/08/27 10:31:43;;;;;;;3.97;1.30;;;;;;;19.81;57.33;96136.56;4975467;28;20261;-72
2021/08/27 10:34:12;;;;;;;2.38;1.08;;;;;;;19.57;56.46;96142.19;4975011;28;20210;-71
2021/08/27 10:36:41;;;;;;;2.50;1.20;;;;;;;19.64;57.76;96134.88;4973898;28;20219;-71
2021/08/27 10:39:07;;;;;;;3.65;1.30;;;;;;;20.06;59.37;96131.78;4975476;28;21169;-72
2021/08/27 10:41:39;;;;;;;1.52;1.20;;;;;;;20.15;58.31;96125.00;4975786;28;20230;-71
2021/08/27 10:44:07;;;;;;;2.67;1.02;;;;;;;19.97;55.64;96127.00;4974887;28;20978;-71
2021/08/27 10:47:03;;;;;;;2.78;1.40;;;;;;;20.64;55.59;96119.72;4974505;28;20238;-72
2021/08/27 10:49:59;;;;;;;19.65;6.40;;;;;;;21.21;56.61;96119.38;4975913;28;20238;-72
2021/08/27 10:52:37;;;;;;;6.55;1.42;;;;;;;20.55;55.21;96121.19;4967842;28;20303;-72
2021/08/27 10:55:13;;;;;;;3.15;1.40;;;;;;;20.78;57.24;96131.78;4975341;28;20245;-73
2021/08/27 10:57:56;;;;;;;3.10;1.10;;;;;;;20.32;57.35;96125.84;4975247;28;20203;-72
2021/08/27 11:00:35;;;;;;;1.30;0.98;;;;;;;19.60;56.79;96125.66;4974869;28;20268;-71
2021/08/27 11:03:01;;;;;;;2.85;1.38;;;;;;;19.54;59.28;96118.59;4975296;28;20709;-72
2021/08/27 11:05:38;;;;;;;2.63;1.20;;;;;;;19.41;57.83;96124.22;4974314;28;20238;-72
2021/08/27 11:08:06;;;;;;;2.67;1.40;;;;;;;19.28;58.74;96120.94;4974463;28;20242;-71
2021/08/27 11:10:35;;;;;;;3.47;1.60;;;;;;;19.09;59.72;96125.59;4974984;28;20212;-71
2021/08/27 11:13:02;;;;;;;3.00;1.92;;;;;;;18.85;61.47;96122.28;4975166;28;20210;-70
2021/08/27 11:15:30;;;;;;;4.97;1.75;;;;;;;19.30;61.59;96130.34;4973384;28;20231;-72
2021/08/27 11:18:24;;;;;;;2.63;1.35;;;;;;;19.35;60.79;96117.13;4975787;28;20558;-72
2021/08/27 11:20:54;;;;;;;4.00;1.55;;;;;;;19.76;59.84;96125.75;4978740;28;20203;-71
2021/08/27 11:23:21;;;;;;;2.58;1.25;;;;;;;20.40;55.99;96128.13;4977651;28;20231;-72
2021/08/27 11:26:03;;;;;;;2.45;1.25;;;;;;;20.88;56.21;96126.63;4976986;28;20227;-72
2021/08/27 11:28:32;;;;;;;4.05;1.25;;;;;;;20.11;55.19;96134.56;4974411;28;20516;-72
2021/08/27 11:31:03;;;;;;;2.63;1.13;;;;;;;20.20;55.58;96133.91;4977573;28;20203;-72